Time;durP1;ratioP1;P1;durP2;ratioP2;P2;SDS_P1;SDS_P2;PMS_P1;PMS_P2;Temp;Humidity;BMP_temperature;BMP_pressure;BME280_temperature;BME280_humidity;BME280_pressure;Samples;Min_cycle;Max_cycle;Signal;HPM_P1;HPM_P2
2023/08/12 00:00:19;;;;;;;3.40;2.50;;;19.60;99.90;;;;;;4991013;28;20059;-80
2023/08/12 00:02:44;;;;;;;4.10;2.40;;;19.50;99.90;;;;;;4989630;28;20423;-80
2023/08/12 00:05:11;;;;;;;5.35;2.90;;;19.50;99.90;;;;;;4990371;28;20046;-80
2023/08/12 00:07:37;;;;;;;5.47;3.20;;;19.40;99.90;;;;;;4988174;28;20396;-80
2023/08/12 00:10:04;;;;;;;4.40;2.95;;;19.40;99.90;;;;;;4982537;28;20046;-80
2023/08/12 00:12:32;;;;;;;4.28;3.30;;;19.40;99.90;;;;;;4984545;28;20046;-80
2023/08/12 00:14:57;;;;;;;5.25;3.47;;;19.30;99.90;;;;;;4987979;28;20166;-80
2023/08/12 00:17:23;;;;;;;4.00;3.08;;;19.30;99.90;;;;;;4971134;28;20059;-80
2023/08/12 00:19:49;;;;;;;6.07;3.70;;;19.20;99.90;;;;;;4987607;28;20136;-80
2023/08/12 00:22:14;;;;;;;4.53;3.45;;;19.20;99.90;;;;;;4989127;28;20077;-80
2023/08/12 00:24:40;;;;;;;3.88;3.47;;;19.20;99.90;;;;;;4990022;28;20049;-80
2023/08/12 00:27:06;;;;;;;5.28;3.78;;;19.20;99.90;;;;;;4989180;28;20054;-80
2023/08/12 00:29:32;;;;;;;6.00;4.28;;;19.20;99.90;;;;;;4989868;28;20587;-80
2023/08/12 00:31:58;;;;;;;5.70;3.92;;;19.10;99.90;;;;;;4990660;28;20049;-80
2023/08/12 00:34:23;;;;;;;5.22;4.18;;;19.10;99.90;;;;;;4989901;28;20117;-80
2023/08/12 00:36:49;;;;;;;4.63;3.63;;;19.10;99.90;;;;;;4989119;28;20471;-80
2023/08/12 00:39:15;;;;;;;7.55;4.68;;;19.10;99.90;;;;;;4988905;28;20085;-80
2023/08/12 00:41:40;;;;;;;6.90;4.85;;;19.20;99.90;;;;;;4985172;28;20097;-80
2023/08/12 00:44:06;;;;;;;7.55;5.07;;;19.00;99.90;;;;;;4981910;28;20061;-80
2023/08/12 00:46:33;;;;;;;6.60;4.70;;;19.10;99.90;;;;;;4989878;28;20081;-80
2023/08/12 00:48:59;;;;;;;6.53;4.78;;;19.00;99.90;;;;;;4981421;28;20050;-80
2023/08/12 00:51:25;;;;;;;7.65;4.82;;;19.20;99.90;;;;;;4972967;28;20104;-80
2023/08/12 00:53:52;;;;;;;6.93;5.53;;;19.00;99.90;;;;;;4990053;28;20038;-80
2023/08/12 00:56:19;;;;;;;6.80;5.05;;;19.00;99.90;;;;;;4984646;28;20086;-80
2023/08/12 00:58:45;;;;;;;6.97;5.80;;;19.00;99.90;;;;;;4976528;28;20121;-80
2023/08/12 01:01:11;;;;;;;11.70;6.10;;;19.00;99.90;;;;;;4981344;28;20050;-80
2023/08/12 01:03:37;;;;;;;8.48;5.03;;;18.90;99.90;;;;;;4971785;28;20039;-79
2023/08/12 01:06:03;;;;;;;10.73;4.80;;;19.00;99.90;;;;;;4971845;28;20434;-80
2023/08/12 01:08:31;;;;;;;6.32;4.60;;;19.00;99.90;;;;;;4988271;28;20053;-80
2023/08/12 01:11:16;;;;;;;7.35;5.20;;;18.90;99.90;;;;;;4970162;28;20058;-80
2023/08/12 01:13:44;;;;;;;9.60;5.57;;;18.90;99.90;;;;;;4985247;28;20042;-79
2023/08/12 01:16:13;;;;;;;8.27;5.95;;;18.80;99.90;;;;;;4972033;28;20043;-80
2023/08/12 01:18:40;;;;;;;7.32;5.70;;;18.90;99.90;;;;;;4967040;28;20047;-80
2023/08/12 01:21:12;;;;;;;8.73;6.13;;;18.80;99.90;;;;;;4970651;28;20057;-80
2023/08/12 01:23:38;;;;;;;9.15;6.32;;;18.80;99.90;;;;;;4970147;28;20050;-79
2023/08/12 01:26:04;;;;;;;7.03;5.90;;;18.90;99.90;;;;;;4985494;28;20055;-80
2023/08/12 01:28:30;;;;;;;8.77;6.63;;;18.80;99.90;;;;;;4974034;28;20046;-80
2023/08/12 01:31:09;;;;;;;7.90;6.15;;;18.80;99.90;;;;;;4983631;28;20089;-80
2023/08/12 01:34:11;;;;;;;9.30;7.00;;;18.70;99.90;;;;;;4970201;28;20047;-79
2023/08/12 01:36:39;;;;;;;10.05;7.07;;;18.70;99.90;;;;;;4962737;28;20066;-80
2023/08/12 01:39:08;;;;;;;10.25;7.43;;;18.70;99.90;;;;;;4983206;28;20066;-80
2023/08/12 01:41:35;;;;;;;7.45;6.75;;;18.60;99.90;;;;;;4987524;28;20042;-80
2023/08/12 01:44:02;;;;;;;8.32;7.22;;;18.60;99.90;;;;;;4985874;28;20042;-80
2023/08/12 01:46:28;;;;;;;7.47;6.40;;;18.60;99.90;;;;;;4976860;28;20125;-80
2023/08/12 01:48:53;;;;;;;11.43;7.80;;;18.60;99.90;;;;;;4987740;28;20125;-80
2023/08/12 01:51:19;;;;;;;9.57;8.18;;;18.50;99.90;;;;;;4989253;28;20500;-79
2023/08/12 01:53:44;;;;;;;10.00;8.43;;;18.50;99.90;;;;;;4987173;28;20046;-80
2023/08/12 01:56:10;;;;;;;9.35;7.22;;;18.50;99.90;;;;;;4989311;28;20054;-80
2023/08/12 01:58:36;;;;;;;12.27;8.02;;;18.50;99.90;;;;;;4988906;28;20038;-80
2023/08/12 02:01:01;;;;;;;11.23;8.20;;;18.40;99.90;;;;;;4971717;28;20085;-80
2023/08/12 02:03:27;;;;;;;11.25;8.30;;;18.40;99.90;;;;;;4988231;28;20137;-80
2023/08/12 02:05:52;;;;;;;12.45;8.68;;;18.40;99.90;;;;;;4988090;28;20100;-80
2023/08/12 02:08:18;;;;;;;11.20;8.93;;;18.40;99.90;;;;;;4987482;28;20201;-80
2023/08/12 02:10:43;;;;;;;10.77;8.38;;;18.50;99.90;;;;;;4985739;28;20046;-80
2023/08/12 02:13:09;;;;;;;13.93;9.90;;;18.50;99.90;;;;;;4960184;28;20558;-80
2023/08/12 02:15:34;;;;;;;15.95;9.88;;;18.50;99.90;;;;;;4969586;28;20065;-80
2023/08/12 02:18:00;;;;;;;13.93;8.45;;;18.50;99.90;;;;;;4974242;28;20174;-80
2023/08/12 02:20:26;;;;;;;13.57;9.20;;;18.70;99.90;;;;;;4969194;28;20516;-80
2023/08/12 02:22:51;;;;;;;13.23;9.40;;;18.60;99.90;;;;;;4985258;28;20046;-80
2023/08/12 02:25:17;;;;;;;16.10;10.13;;;18.60;99.90;;;;;;4987218;28;20042;-80
2023/08/12 02:27:47;;;;;;;13.90;10.52;;;18.60;99.90;;;;;;4988706;28;20752;-80
2023/08/12 02:30:12;;;;;;;12.52;9.60;;;18.60;99.90;;;;;;4971835;28;20115;-80
2023/08/12 02:32:38;;;;;;;10.95;9.30;;;18.60;99.90;;;;;;4969252;28;20141;-79
2023/08/12 02:35:03;;;;;;;11.32;9.77;;;18.70;99.90;;;;;;4979692;28;20656;-80
2023/08/12 02:37:29;;;;;;;10.65;8.95;;;18.70;99.90;;;;;;4988063;28;20047;-80
2023/08/12 02:39:55;;;;;;;11.98;9.55;;;18.70;99.90;;;;;;4987920;28;20435;-80
2023/08/12 02:42:20;;;;;;;11.55;9.40;;;18.70;99.90;;;;;;4988137;28;20050;-79
2023/08/12 02:44:46;;;;;;;12.70;10.77;;;18.70;99.90;;;;;;4987170;28;20050;-78
2023/08/12 02:47:11;;;;;;;14.15;10.85;;;18.80;99.90;;;;;;4986675;28;20508;-80
2023/08/12 02:49:37;;;;;;;15.25;10.68;;;18.80;99.90;;;;;;4987937;28;20089;-79
2023/08/12 02:52:03;;;;;;;12.82;10.77;;;18.80;99.90;;;;;;4986815;28;20042;-80
2023/08/12 02:54:28;;;;;;;14.90;12.02;;;18.80;99.90;;;;;;4987644;28;20193;-80
2023/08/12 02:56:54;;;;;;;14.88;11.48;;;18.90;99.90;;;;;;4987180;28;20068;-79
2023/08/12 02:59:19;;;;;;;17.13;11.10;;;18.90;99.90;;;;;;4987676;28;20057;-79
2023/08/12 03:01:45;;;;;;;14.13;12.05;;;18.90;99.90;;;;;;4986420;28;20046;-80
2023/08/12 03:04:10;;;;;;;16.13;11.23;;;18.90;99.90;;;;;;4981422;28;20421;-80
2023/08/12 03:06:36;;;;;;;15.63;11.35;;;18.90;99.90;;;;;;4982299;28;20054;-80
2023/08/12 03:09:02;;;;;;;14.55;11.52;;;18.90;99.90;;;;;;4986101;28;20042;-79
2023/08/12 03:11:28;;;;;;;17.50;12.50;;;18.90;99.90;;;;;;4971513;28;20560;-80
2023/08/12 03:13:53;;;;;;;15.57;10.95;;;18.90;99.90;;;;;;4987026;28;20054;-80
2023/08/12 03:16:19;;;;;;;14.05;11.52;;;18.90;99.90;;;;;;4988296;28;20053;-79
2023/08/12 03:18:44;;;;;;;13.95;11.70;;;18.80;99.90;;;;;;4986427;28;20390;-80
2023/08/12 03:21:10;;;;;;;15.57;12.00;;;18.80;99.90;;;;;;4986912;28;20046;-80
2023/08/12 03:23:37;;;;;;;15.80;12.52;;;18.90;99.90;;;;;;4968352;28;20087;-80
2023/08/12 03:26:03;;;;;;;14.10;12.05;;;18.90;99.90;;;;;;4968328;28;20083;-80
2023/08/12 03:28:29;;;;;;;13.18;11.80;;;18.80;99.90;;;;;;4980047;28;20677;-80
2023/08/12 03:30:54;;;;;;;14.50;12.07;;;18.90;99.90;;;;;;4991108;28;20233;-80
2023/08/12 03:33:21;;;;;;;14.05;11.82;;;18.80;99.90;;;;;;4987910;28;20069;-80
2023/08/12 03:35:47;;;;;;;16.30;12.10;;;18.90;99.90;;;;;;4981083;28;20042;-80
2023/08/12 03:38:13;;;;;;;15.90;11.60;;;18.90;99.90;;;;;;4991284;28;20061;-80
2023/08/12 03:40:40;;;;;;;14.65;11.80;;;18.90;99.90;;;;;;4976594;28;20058;-80
2023/08/12 03:43:06;;;;;;;12.80;11.05;;;18.90;99.90;;;;;;4987240;28;20452;-80
2023/08/12 03:45:31;;;;;;;18.30;12.02;;;18.90;99.90;;;;;;4991354;28;20050;-80
2023/08/12 03:47:57;;;;;;;13.50;11.45;;;18.90;99.90;;;;;;4990564;28;20046;-80
2023/08/12 03:50:22;;;;;;;14.85;12.88;;;18.90;99.90;;;;;;4991455;28;20042;-80
2023/08/12 03:52:48;;;;;;;12.50;11.30;;;18.90;99.90;;;;;;4986922;28;20137;-80
2023/08/12 03:55:14;;;;;;;14.70;11.32;;;18.90;99.90;;;;;;4990872;28;20113;-80
2023/08/12 03:57:39;;;;;;;14.75;11.80;;;18.90;99.90;;;;;;4989285;28;20035;-80
2023/08/12 04:00:07;;;;;;;14.13;12.30;;;18.90;99.90;;;;;;4980895;28;20042;-80
2023/08/12 04:02:33;;;;;;;15.75;12.95;;;18.90;99.90;;;;;;4991813;28;20054;-80
2023/08/12 04:04:59;;;;;;;17.85;11.85;;;18.90;99.90;;;;;;4975128;28;20120;-80
2023/08/12 04:07:24;;;;;;;14.05;12.10;;;18.90;99.90;;;;;;4973219;28;20042;-81
2023/08/12 04:09:50;;;;;;;15.18;12.50;;;19.00;99.90;;;;;;4990590;28;20068;-81
2023/08/12 04:12:15;;;;;;;16.85;11.90;;;19.00;99.90;;;;;;4990617;28;20050;-80
2023/08/12 04:14:41;;;;;;;14.05;11.38;;;19.00;99.90;;;;;;4990454;28;20151;-81
2023/08/12 04:17:06;;;;;;;15.48;12.32;;;19.10;99.90;;;;;;4975649;28;20411;-81
2023/08/12 04:19:32;;;;;;;15.88;12.55;;;19.00;99.90;;;;;;4989756;28;20046;-81
2023/08/12 04:21:58;;;;;;;18.90;13.55;;;19.00;99.90;;;;;;4989327;28;20113;-81
2023/08/12 04:24:23;;;;;;;13.50;12.07;;;19.00;99.90;;;;;;4984876;28;20039;-81
2023/08/12 04:26:49;;;;;;;19.83;13.02;;;19.00;99.90;;;;;;4981898;28;20046;-81
2023/08/12 04:29:14;;;;;;;15.65;11.88;;;19.00;99.90;;;;;;4986797;28;20558;-81
2023/08/12 04:31:40;;;;;;;17.55;12.85;;;19.00;99.90;;;;;;4957922;28;20089;-81
2023/08/12 04:34:06;;;;;;;19.90;12.85;;;19.20;99.90;;;;;;4970966;28;20102;-80
2023/08/12 04:36:32;;;;;;;15.27;12.57;;;19.10;99.90;;;;;;4970795;28;20051;-80
2023/08/12 04:38:57;;;;;;;13.82;11.73;;;19.10;99.90;;;;;;4981631;28;20080;-80
2023/08/12 04:41:24;;;;;;;16.13;12.68;;;19.10;99.90;;;;;;4984582;28;20080;-80
2023/08/12 04:43:49;;;;;;;15.20;12.68;;;19.10;99.90;;;;;;4979143;28;20055;-80
2023/08/12 04:46:15;;;;;;;14.93;13.23;;;19.10;99.90;;;;;;4958581;28;20045;-81
2023/08/12 04:48:40;;;;;;;16.77;14.20;;;19.10;99.90;;;;;;4973322;28;20066;-81
2023/08/12 04:51:07;;;;;;;16.15;13.13;;;19.20;99.90;;;;;;4954428;28;20050;-81
2023/08/12 04:53:35;;;;;;;17.67;13.55;;;19.20;99.90;;;;;;4961944;28;20416;-81
2023/08/12 04:56:03;;;;;;;17.58;14.25;;;19.20;99.90;;;;;;4970453;28;20520;-81
2023/08/12 04:58:28;;;;;;;19.65;13.43;;;19.20;99.90;;;;;;4966611;28;20089;-81
2023/08/12 05:00:54;;;;;;;18.65;13.60;;;19.10;99.90;;;;;;4990333;28;20074;-81
2023/08/12 05:03:19;;;;;;;15.60;13.18;;;19.20;99.90;;;;;;4988174;28;20058;-81
2023/08/12 05:05:52;;;;;;;17.15;13.18;;;19.10;99.90;;;;;;4987789;28;20038;-81
2023/08/12 05:08:18;;;;;;;16.27;12.98;;;19.20;99.90;;;;;;4987903;28;20161;-81
2023/08/12 05:10:43;;;;;;;17.35;12.43;;;19.20;99.90;;;;;;4975904;28;20062;-81
2023/08/12 05:13:09;;;;;;;16.65;13.20;;;19.00;99.90;;;;;;4975177;28;20038;-82
2023/08/12 05:15:36;;;;;;;15.35;12.80;;;19.20;99.90;;;;;;4980899;28;20050;-81
2023/08/12 05:18:03;;;;;;;16.35;12.93;;;19.20;99.90;;;;;;4985023;28;20145;-81
2023/08/12 05:20:28;;;;;;;18.15;14.18;;;19.20;99.90;;;;;;4986625;28;20038;-80
2023/08/12 05:22:54;;;;;;;16.38;12.88;;;19.20;99.90;;;;;;4985578;28;20038;-80
2023/08/12 05:25:19;;;;;;;17.83;14.18;;;19.30;99.90;;;;;;4982614;28;20096;-81
2023/08/12 05:27:45;;;;;;;16.40;13.68;;;19.30;99.90;;;;;;4984085;28;20125;-80
2023/08/12 05:30:11;;;;;;;23.83;15.15;;;19.30;99.90;;;;;;4967303;28;20054;-80
2023/08/12 05:32:37;;;;;;;21.23;14.88;;;19.40;99.90;;;;;;4976815;28;20052;-81
2023/08/12 05:35:02;;;;;;;17.52;13.48;;;19.40;99.90;;;;;;4965061;28;20405;-81
2023/08/12 05:37:28;;;;;;;17.80;14.60;;;19.50;99.90;;;;;;4985117;28;20046;-81
2023/08/12 05:39:54;;;;;;;16.92;13.68;;;19.60;99.90;;;;;;4978227;28;20054;-81
2023/08/12 05:42:19;;;;;;;19.40;14.77;;;19.60;99.90;;;;;;4989511;28;20534;-81
2023/08/12 05:44:45;;;;;;;17.58;14.57;;;19.60;99.90;;;;;;4985423;28;20073;-81
2023/08/12 05:47:10;;;;;;;18.70;14.52;;;19.90;99.90;;;;;;4988186;28;20464;-82
2023/08/12 05:49:36;;;;;;;17.85;14.35;;;19.80;99.90;;;;;;4986068;28;20186;-81
2023/08/12 05:52:05;;;;;;;19.52;14.50;;;19.80;99.90;;;;;;4988861;28;20049;-81
2023/08/12 05:54:30;;;;;;;17.02;14.77;;;20.00;99.90;;;;;;4969319;28;20449;-81
2023/08/12 05:56:56;;;;;;;15.95;14.23;;;20.20;99.90;;;;;;4971618;28;20043;-81
2023/08/12 05:59:21;;;;;;;17.73;13.80;;;20.20;99.90;;;;;;4974940;28;20042;-81
2023/08/12 06:01:47;;;;;;;16.10;14.38;;;20.30;99.90;;;;;;4988146;28;20611;-82
2023/08/12 06:04:12;;;;;;;17.10;14.60;;;20.40;99.90;;;;;;4985415;28;20054;-81
2023/08/12 06:06:38;;;;;;;16.20;13.70;;;20.90;99.90;;;;;;4987105;28;20081;-81
2023/08/12 06:09:04;;;;;;;15.75;13.80;;;21.60;99.90;;;;;;4986734;28;20049;-81
2023/08/12 06:11:29;;;;;;;18.75;13.82;;;21.80;99.90;;;;;;4980154;28;20069;-81
2023/08/12 06:13:55;;;;;;;17.55;13.55;;;21.80;99.90;;;;;;4983130;28;20100;-89
2023/08/12 06:16:20;;;;;;;16.17;14.02;;;21.70;99.90;;;;;;4983653;28;20047;-82
2023/08/12 06:18:46;;;;;;;15.80;13.43;;;21.40;99.90;;;;;;4968989;28;20042;-82
2023/08/12 06:21:12;;;;;;;16.58;14.55;;;21.50;99.90;;;;;;4981636;28;20095;-82
2023/08/12 06:23:38;;;;;;;21.05;15.00;;;21.40;99.90;;;;;;4986586;28;20044;-81
2023/08/12 06:26:04;;;;;;;17.20;13.93;;;21.20;99.90;;;;;;4986130;28;20457;-80
2023/08/12 06:28:31;;;;;;;18.08;14.43;;;21.20;99.90;;;;;;4971997;28;20054;-83
2023/08/12 06:30:58;;;;;;;18.10;15.32;;;21.30;99.90;;;;;;4983034;28;20046;-82
2023/08/12 06:33:23;;;;;;;18.30;14.85;;;21.10;99.90;;;;;;4967548;28;20057;-82
2023/08/12 06:35:50;;;;;;;21.27;15.07;;;21.00;99.90;;;;;;4986641;28;20253;-82
2023/08/12 06:38:16;;;;;;;21.25;15.85;;;21.10;99.90;;;;;;4983898;28;20828;-82
2023/08/12 06:40:42;;;;;;;20.35;15.55;;;21.10;99.90;;;;;;4986928;28;20086;-82
2023/08/12 06:43:08;;;;;;;20.60;15.27;;;21.10;99.90;;;;;;4987518;28;20622;-82
2023/08/12 06:45:34;;;;;;;22.77;16.85;;;21.30;99.90;;;;;;4987323;28;20046;-82
2023/08/12 06:48:02;;;;;;;18.95;15.73;;;21.10;99.90;;;;;;4987588;28;20393;-82
2023/08/12 06:50:27;;;;;;;18.15;16.05;;;21.10;99.90;;;;;;4986840;28;20046;-82
2023/08/12 06:52:53;;;;;;;17.85;15.98;;;21.20;99.90;;;;;;4973488;28;20571;-82
2023/08/12 06:55:18;;;;;;;19.13;16.45;;;21.10;99.90;;;;;;4979318;28;20414;-83
2023/08/12 06:57:44;;;;;;;19.85;16.58;;;21.10;99.90;;;;;;4981178;28;20046;-82
2023/08/12 07:00:10;;;;;;;22.73;17.05;;;21.10;99.90;;;;;;4976603;28;20051;-82
2023/08/12 07:02:36;;;;;;;18.52;15.13;;;21.10;99.90;;;;;;4975242;28;20042;-82
2023/08/12 07:05:02;;;;;;;19.27;16.63;;;21.00;99.90;;;;;;4973799;28;20053;-81
2023/08/12 07:07:27;;;;;;;19.05;16.77;;;21.00;99.90;;;;;;4968358;28;20402;-81
2023/08/12 07:09:53;;;;;;;21.02;16.80;;;21.00;99.90;;;;;;4986288;28;20133;-82
2023/08/12 07:12:18;;;;;;;18.83;16.70;;;21.00;99.90;;;;;;4987843;28;20050;-81
2023/08/12 07:14:44;;;;;;;20.23;16.50;;;21.00;99.90;;;;;;4987028;28;20491;-82
2023/08/12 07:17:10;;;;;;;21.77;16.95;;;20.90;99.90;;;;;;4987774;28;20046;-82
2023/08/12 07:19:35;;;;;;;21.25;15.95;;;21.00;99.90;;;;;;4987359;28;20084;-82
2023/08/12 07:22:01;;;;;;;17.90;15.93;;;20.90;99.90;;;;;;4967791;28;20505;-82
2023/08/12 07:24:26;;;;;;;19.40;16.30;;;21.00;99.90;;;;;;4979156;28;20452;-82
2023/08/12 07:26:52;;;;;;;21.52;16.95;;;20.90;99.90;;;;;;4973590;28;20209;-81
2023/08/12 07:29:17;;;;;;;21.63;16.90;;;20.80;99.90;;;;;;4966972;28;20079;-80
2023/08/12 07:31:43;;;;;;;21.48;16.70;;;20.80;99.90;;;;;;4967792;28;20097;-80
2023/08/12 07:34:12;;;;;;;19.52;16.50;;;20.80;99.90;;;;;;4966981;28;20638;-81
2023/08/12 07:36:43;;;;;;;21.63;17.25;;;20.80;99.90;;;;;;4975992;28;20053;-82
2023/08/12 07:39:09;;;;;;;17.52;15.43;;;20.80;99.90;;;;;;4970472;28;20047;-82
2023/08/12 07:41:35;;;;;;;20.27;16.13;;;20.70;99.90;;;;;;4971882;28;20056;-81
2023/08/12 07:44:00;;;;;;;19.55;16.90;;;20.60;99.90;;;;;;4987176;28;20057;-81
2023/08/12 07:46:27;;;;;;;17.40;15.60;;;20.70;99.90;;;;;;4986392;28;20043;-81
2023/08/12 07:48:53;;;;;;;20.42;16.10;;;20.70;99.90;;;;;;4986593;28;20056;-80
2023/08/12 07:51:19;;;;;;;20.33;16.08;;;20.70;99.90;;;;;;4987330;28;20042;-81
2023/08/12 07:53:45;;;;;;;21.88;16.23;;;20.80;99.90;;;;;;4984346;28;20042;-83
2023/08/12 07:56:13;;;;;;;18.02;15.07;;;21.00;99.90;;;;;;4968845;28;20085;-82
2023/08/12 07:58:39;;;;;;;22.48;16.67;;;21.00;99.90;;;;;;4977302;28;20398;-83
2023/08/12 08:01:04;;;;;;;18.90;15.35;;;20.80;99.90;;;;;;4987427;28;20097;-83
2023/08/12 08:03:30;;;;;;;19.00;17.00;;;20.80;99.90;;;;;;4987199;28;20085;-84
2023/08/12 08:05:56;;;;;;;20.48;16.52;;;20.80;99.90;;;;;;4983877;28;20057;-82
2023/08/12 08:08:22;;;;;;;20.17;16.65;;;20.70;99.90;;;;;;4977710;28;20104;-82
2023/08/12 08:10:47;;;;;;;20.02;16.00;;;20.70;99.90;;;;;;4969690;28;20054;-82
2023/08/12 08:13:13;;;;;;;20.55;16.33;;;20.60;99.90;;;;;;4975675;28;20046;-81
2023/08/12 08:15:39;;;;;;;19.35;15.35;;;20.60;99.90;;;;;;4982637;28;20049;-81
2023/08/12 08:18:04;;;;;;;23.42;17.58;;;20.60;99.90;;;;;;4987880;28;20035;-82
2023/08/12 08:20:30;;;;;;;18.15;16.20;;;20.60;99.90;;;;;;4985584;28;20039;-81
2023/08/12 08:22:56;;;;;;;18.45;14.57;;;20.60;99.90;;;;;;4981641;28;20039;-81
2023/08/12 08:25:22;;;;;;;20.83;16.33;;;20.50;99.90;;;;;;4987711;28;20045;-81
2023/08/12 08:27:47;;;;;;;20.23;16.70;;;20.60;99.90;;;;;;4989133;28;20405;-82
2023/08/12 08:30:14;;;;;;;19.08;15.80;;;20.50;99.90;;;;;;4977726;28;20049;-80
2023/08/12 08:32:40;;;;;;;17.90;15.45;;;20.50;99.90;;;;;;4980081;28;20043;-80
2023/08/12 08:35:06;;;;;;;19.88;15.60;;;20.50;99.90;;;;;;4984145;28;20042;-80
2023/08/12 08:37:31;;;;;;;18.00;16.10;;;20.50;99.90;;;;;;4979611;28;20035;-80
2023/08/12 08:39:57;;;;;;;17.63;15.15;;;20.50;99.90;;;;;;4989246;28;20058;-81
2023/08/12 08:42:24;;;;;;;17.83;15.27;;;20.40;99.90;;;;;;4982454;28;20050;-81
2023/08/12 08:44:53;;;;;;;17.45;13.95;;;20.40;99.90;;;;;;4980168;28;20062;-80
2023/08/12 08:47:26;;;;;;;18.33;15.90;;;20.60;99.90;;;;;;4981524;28;20065;-81
2023/08/12 08:49:55;;;;;;;19.58;16.42;;;20.40;99.90;;;;;;4973160;28;20512;-80
2023/08/12 08:52:21;;;;;;;14.10;12.80;;;20.40;99.90;;;;;;4982414;28;20039;-75
2023/08/12 08:54:47;;;;;;;13.32;11.15;;;20.30;99.90;;;;;;4982182;28;20526;-79
2023/08/12 08:57:13;;;;;;;10.25;8.15;;;20.30;99.90;;;;;;4979438;28;20130;-78
2023/08/12 08:59:39;;;;;;;7.72;6.75;;;20.20;99.90;;;;;;4985170;28;20050;-88
2023/08/12 09:02:08;;;;;;;7.75;5.88;;;20.10;99.90;;;;;;4987815;28;20464;-85
2023/08/12 09:04:34;;;;;;;8.55;5.50;;;20.10;99.90;;;;;;4991019;28;20090;-84
2023/08/12 09:07:00;;;;;;;6.13;5.13;;;20.00;99.90;;;;;;4984841;28;20042;-83
2023/08/12 09:09:27;;;;;;;7.15;5.03;;;20.00;99.90;;;;;;4989183;28;20455;-83
2023/08/12 09:11:54;;;;;;;8.55;4.50;;;19.90;99.90;;;;;;4990280;28;20129;-81
2023/08/12 09:14:19;;;;;;;6.13;4.70;;;19.80;99.90;;;;;;4989915;28;20559;-83
2023/08/12 09:16:45;;;;;;;7.32;4.75;;;19.80;99.90;;;;;;4981205;28;20057;-81
2023/08/12 09:19:11;;;;;;;9.32;5.35;;;19.80;99.90;;;;;;4981843;28;20385;-81
2023/08/12 09:21:37;;;;;;;7.32;5.03;;;19.70;99.90;;;;;;4981508;28;20046;-82
2023/08/12 09:24:06;;;;;;;6.75;4.82;;;19.70;99.90;;;;;;4965715;28;20366;-81
2023/08/12 09:26:32;;;;;;;6.30;5.07;;;19.70;99.90;;;;;;5001813;28;20061;-81
2023/08/12 09:28:59;;;;;;;10.32;5.63;;;19.70;99.90;;;;;;4982578;28;20632;-81
2023/08/12 09:31:29;;;;;;;7.30;5.07;;;19.80;99.90;;;;;;4969673;28;20047;-82
2023/08/12 09:34:04;;;;;;;6.43;5.05;;;19.70;99.90;;;;;;4969766;28;20085;-82
2023/08/12 09:36:30;;;;;;;7.93;5.22;;;19.70;99.90;;;;;;4976151;28;20045;-82
2023/08/12 09:38:58;;;;;;;6.70;5.05;;;19.70;99.90;;;;;;4970041;28;20785;-82
2023/08/12 09:41:25;;;;;;;6.75;5.78;;;19.70;99.90;;;;;;4968023;28;20047;-83
2023/08/12 09:43:52;;;;;;;5.57;4.95;;;19.80;99.90;;;;;;4980963;28;20046;-82
2023/08/12 09:46:20;;;;;;;5.50;4.88;;;19.70;99.90;;;;;;4970928;28;20046;-82
2023/08/12 09:48:46;;;;;;;7.65;4.90;;;19.70;99.90;;;;;;4989320;28;20050;-82
2023/08/12 09:51:12;;;;;;;5.70;5.07;;;19.80;99.90;;;;;;4987837;28;20470;-82
2023/08/12 09:53:38;;;;;;;5.45;4.95;;;19.80;99.90;;;;;;4988167;28;20035;-82
2023/08/12 09:56:10;;;;;;;5.55;4.90;;;19.80;99.90;;;;;;4988552;28;20072;-82
2023/08/12 09:58:37;;;;;;;6.30;5.15;;;19.90;99.90;;;;;;4984145;28;20051;-83
2023/08/12 10:01:04;;;;;;;6.25;5.35;;;19.90;99.90;;;;;;4982909;28;20105;-82
2023/08/12 10:03:32;;;;;;;5.93;5.38;;;20.00;99.90;;;;;;4971587;28;20081;-82
2023/08/12 10:05:59;;;;;;;6.53;5.82;;;20.00;99.90;;;;;;4983548;28;20050;-83
2023/08/12 10:08:27;;;;;;;6.53;5.63;;;20.10;99.90;;;;;;4968208;28;20046;-82
2023/08/12 10:10:52;;;;;;;6.53;5.82;;;20.10;99.90;;;;;;4975484;28;20043;-82
2023/08/12 10:13:19;;;;;;;6.57;5.97;;;20.00;99.90;;;;;;4982719;28;20039;-83
2023/08/12 10:15:45;;;;;;;6.75;6.05;;;20.10;99.90;;;;;;4982712;28;20084;-83
2023/08/12 10:18:12;;;;;;;6.22;5.65;;;20.20;99.90;;;;;;4975322;28;20047;-82
2023/08/12 10:20:38;;;;;;;9.23;6.30;;;20.10;99.90;;;;;;4972203;28;20054;-82
2023/08/12 10:23:06;;;;;;;6.45;5.78;;;20.10;99.90;;;;;;4973903;28;20042;-82
2023/08/12 10:25:34;;;;;;;7.20;6.13;;;20.10;99.90;;;;;;4976312;28;20165;-82
2023/08/12 10:28:00;;;;;;;7.78;6.40;;;20.10;99.90;;;;;;4972723;28;20076;-82
2023/08/12 10:30:29;;;;;;;6.68;6.07;;;20.20;99.90;;;;;;4985253;28;20082;-84
2023/08/12 10:32:54;;;;;;;5.25;4.78;;;20.20;99.90;;;;;;4983177;28;20602;-84
2023/08/12 10:35:20;;;;;;;6.13;4.97;;;20.20;99.90;;;;;;4995744;28;20050;-84
2023/08/12 10:37:50;;;;;;;4.45;4.05;;;20.20;99.90;;;;;;4985670;28;20397;-84
2023/08/12 10:40:21;;;;;;;3.95;3.65;;;20.30;99.90;;;;;;4966249;28;20086;-84
2023/08/12 10:42:48;;;;;;;2.75;2.42;;;20.30;99.90;;;;;;4976676;28;20508;-86
2023/08/12 10:45:15;;;;;;;3.42;2.42;;;20.40;99.90;;;;;;4975058;28;20035;-85
2023/08/12 10:48:00;;;;;;;2.50;2.30;;;20.40;99.90;;;;;;4973034;28;20127;-83
2023/08/12 10:50:26;;;;;;;2.58;1.50;;;20.40;99.90;;;;;;4973817;28;20468;-84
2023/08/12 10:52:53;;;;;;;1.75;1.15;;;20.40;99.90;;;;;;4988143;28;20121;-84
2023/08/12 10:55:24;;;;;;;1.15;1.05;;;20.40;99.90;;;;;;4976810;28;20173;-84
2023/08/12 10:57:53;;;;;;;1.00;0.90;;;20.50;99.90;;;;;;4980563;28;20058;-84
2023/08/12 11:00:26;;;;;;;1.67;0.80;;;20.50;99.90;;;;;;4975785;28;20057;-85
2023/08/12 11:02:56;;;;;;;1.00;0.80;;;20.50;99.90;;;;;;4978790;28;20046;-84
2023/08/12 11:05:24;;;;;;;0.60;0.60;;;20.50;99.90;;;;;;4970196;28;20122;-86
2023/08/12 11:07:57;;;;;;;2.13;0.63;;;20.50;99.90;;;;;;4971313;28;20133;-85
2023/08/12 11:10:26;;;;;;;0.80;0.60;;;20.50;99.90;;;;;;4978920;28;20061;-84
2023/08/12 11:12:52;;;;;;;0.82;0.60;;;20.50;99.90;;;;;;4981264;28;20042;-86
2023/08/12 11:15:19;;;;;;;1.10;0.70;;;20.60;99.90;;;;;;4984241;28;20048;-85
2023/08/12 11:17:46;;;;;;;0.80;0.80;;;20.70;99.90;;;;;;4983145;28;20042;-83
2023/08/12 11:20:13;;;;;;;0.70;0.60;;;20.80;99.90;;;;;;4986464;28;20051;-83
2023/08/12 11:22:43;;;;;;;0.60;0.60;;;20.80;99.90;;;;;;4975365;28;20054;-83
2023/08/12 11:25:12;;;;;;;0.70;0.70;;;21.10;99.90;;;;;;4983425;28;20680;-82
2023/08/12 11:27:40;;;;;;;1.60;0.70;;;21.00;99.90;;;;;;4984033;28;20081;-81
2023/08/12 11:30:08;;;;;;;0.60;0.60;;;21.40;99.90;;;;;;4971990;28;20051;-81
2023/08/12 11:32:34;;;;;;;0.70;0.70;;;21.20;99.90;;;;;;4966453;28;20063;-81
2023/08/12 11:35:03;;;;;;;1.23;1.13;;;21.30;99.90;;;;;;4977911;28;20063;-83
2023/08/12 11:37:29;;;;;;;2.03;1.13;;;21.60;99.90;;;;;;4987878;28;20050;-82
2023/08/12 11:39:55;;;;;;;1.00;1.00;;;21.50;99.90;;;;;;4986808;28;20339;-82
2023/08/12 11:42:20;;;;;;;1.52;1.42;;;21.50;99.90;;;;;;4986699;28;20057;-82
2023/08/12 11:44:46;;;;;;;1.40;1.30;;;21.50;99.90;;;;;;4984376;28;20053;-84
2023/08/12 11:47:11;;;;;;;1.33;1.23;;;21.50;99.90;;;;;;4983072;28;20085;-82
2023/08/12 11:49:37;;;;;;;1.83;1.50;;;21.70;99.90;;;;;;4982927;28;20057;-83
2023/08/12 11:52:03;;;;;;;1.83;1.38;;;21.70;99.90;;;;;;4989572;28;20050;-83
2023/08/12 11:54:29;;;;;;;1.80;1.50;;;21.60;99.90;;;;;;4988023;28;20053;-83
2023/08/12 11:56:56;;;;;;;1.60;1.50;;;21.70;99.90;;;;;;4986653;28;20042;-85
2023/08/12 11:59:22;;;;;;;2.50;1.50;;;21.80;99.90;;;;;;4974530;28;20105;-82
2023/08/12 12:01:49;;;;;;;1.80;1.70;;;21.90;99.90;;;;;;4987817;28;20592;-83
2023/08/12 12:04:16;;;;;;;1.95;1.52;;;21.60;99.90;;;;;;4974447;28;20165;-84
2023/08/12 12:06:42;;;;;;;1.40;1.30;;;21.80;99.90;;;;;;4980765;28;20065;-83
2023/08/12 12:09:12;;;;;;;1.52;1.15;;;21.80;99.90;;;;;;4989475;28;20038;-82
2023/08/12 12:11:39;;;;;;;1.00;0.75;;;21.60;99.90;;;;;;4983683;28;20038;-84
2023/08/12 12:14:09;;;;;;;1.10;0.90;;;21.30;99.90;;;;;;4988116;28;20168;-83
2023/08/12 12:16:43;;;;;;;1.63;0.73;;;21.00;99.90;;;;;;4989525;28;20496;-81
2023/08/12 12:19:18;;;;;;;1.42;0.95;;;20.90;99.90;;;;;;4990181;28;20429;-83
2023/08/12 12:21:51;;;;;;;1.90;1.50;;;20.90;99.90;;;;;;4991025;28;20042;-83
2023/08/12 12:24:18;;;;;;;1.40;1.08;;;21.00;99.90;;;;;;4976780;28;20046;-82
2023/08/12 12:26:46;;;;;;;1.73;1.35;;;21.20;99.90;;;;;;4982638;28;20050;-84
2023/08/12 12:29:13;;;;;;;1.65;1.10;;;21.40;99.90;;;;;;4985016;28;20058;-83
2023/08/12 12:31:40;;;;;;;1.50;1.02;;;21.50;99.90;;;;;;4989203;28;20038;-83